sensor_id;sensor_type;location;lat;lon;timestamp;temperature;humidity
67748;HTU21D;54543;50.712;6.070;2023-02-01T00:01:49;5.78;96.71
67748;HTU21D;54543;50.712;6.070;2023-02-01T00:04:15;5.80;96.56
67748;HTU21D;54543;50.712;6.070;2023-02-01T00:06:40;5.81;96.45
67748;HTU21D;54543;50.712;6.070;2023-02-01T00:09:06;5.82;96.29
67748;HTU21D;54543;50.712;6.070;2023-02-01T00:11:31;5.84;96.13
67748;HTU21D;54543;50.712;6.070;2023-02-01T00:13:57;5.80;96.17
67748;HTU21D;54543;50.712;6.070;2023-02-01T00:16:25;5.83;96.07
67748;HTU21D;54543;50.712;6.070;2023-02-01T00:18:55;5.78;95.98
67748;HTU21D;54543;50.712;6.070;2023-02-01T00:21:22;5.80;95.72
67748;HTU21D;54543;50.712;6.070;2023-02-01T00:23:47;5.78;95.78
67748;HTU21D;54543;50.712;6.070;2023-02-01T00:26:25;5.78;95.62
67748;HTU21D;54543;50.712;6.070;2023-02-01T00:28:53;5.79;95.55
67748;HTU21D;54543;50.712;6.070;2023-02-01T00:31:18;5.76;95.46
67748;HTU21D;54543;50.712;6.070;2023-02-01T00:33:47;5.78;95.21
67748;HTU21D;54543;50.712;6.070;2023-02-01T00:36:13;5.77;95.29
67748;HTU21D;54543;50.712;6.070;2023-02-01T00:38:39;5.72;95.08
67748;HTU21D;54543;50.712;6.070;2023-02-01T00:41:07;5.72;95.21
67748;HTU21D;54543;50.712;6.070;2023-02-01T00:43:34;5.77;95.07
67748;HTU21D;54543;50.712;6.070;2023-02-01T00:45:59;5.71;94.94
67748;HTU21D;54543;50.712;6.070;2023-02-01T00:48:26;5.68;95.03
67748;HTU21D;54543;50.712;6.070;2023-02-01T00:50:51;5.68;95.11
67748;HTU21D;54543;50.712;6.070;2023-02-01T00:53:17;5.67;95.19
67748;HTU21D;54543;50.712;6.070;2023-02-01T00:55:47;5.71;95.08
67748;HTU21D;54543;50.712;6.070;2023-02-01T00:58:13;5.68;95.16
67748;HTU21D;54543;50.712;6.070;2023-02-01T01:00:39;5.69;95.28
67748;HTU21D;54543;50.712;6.070;2023-02-01T01:03:05;5.66;95.30
67748;HTU21D;54543;50.712;6.070;2023-02-01T01:05:47;5.64;95.33
67748;HTU21D;54543;50.712;6.070;2023-02-01T01:08:14;5.66;95.30
67748;HTU21D;54543;50.712;6.070;2023-02-01T01:10:40;5.64;95.26
67748;HTU21D;54543;50.712;6.070;2023-02-01T01:13:06;5.63;95.20
67748;HTU21D;54543;50.712;6.070;2023-02-01T01:15:36;5.63;95.27
67748;HTU21D;54543;50.712;6.070;2023-02-01T01:18:02;5.61;95.20
67748;HTU21D;54543;50.712;6.070;2023-02-01T01:20:28;5.60;95.17
67748;HTU21D;54543;50.712;6.070;2023-02-01T01:22:54;5.60;94.95
67748;HTU21D;54543;50.712;6.070;2023-02-01T01:25:19;5.57;95.06
67748;HTU21D;54543;50.712;6.070;2023-02-01T01:27:46;5.57;95.06
67748;HTU21D;54543;50.712;6.070;2023-02-01T01:30:12;5.56;94.98
67748;HTU21D;54543;50.712;6.070;2023-02-01T01:32:38;5.56;94.93
67748;HTU21D;54543;50.712;6.070;2023-02-01T01:35:04;5.60;94.85
67748;HTU21D;54543;50.712;6.070;2023-02-01T01:37:29;5.54;94.72
67748;HTU21D;54543;50.712;6.070;2023-02-01T01:39:55;5.56;94.60
67748;HTU21D;54543;50.712;6.070;2023-02-01T01:42:21;5.56;94.59
67748;HTU21D;54543;50.712;6.070;2023-02-01T01:47:21;5.52;94.30
67748;HTU21D;54543;50.712;6.070;2023-02-01T01:49:47;5.54;94.34
67748;HTU21D;54543;50.712;6.070;2023-02-01T01:52:12;5.55;94.17
67748;HTU21D;54543;50.712;6.070;2023-02-01T01:54:41;5.53;93.88
67748;HTU21D;54543;50.712;6.070;2023-02-01T01:57:14;5.54;93.37
67748;HTU21D;54543;50.712;6.070;2023-02-01T01:59:43;5.52;93.53
67748;HTU21D;54543;50.712;6.070;2023-02-01T02:02:11;5.50;93.48
67748;HTU21D;54543;50.712;6.070;2023-02-01T02:04:37;5.49;93.66
67748;HTU21D;54543;50.712;6.070;2023-02-01T02:07:07;5.48;93.62
67748;HTU21D;54543;50.712;6.070;2023-02-01T02:09:34;5.45;93.36
67748;HTU21D;54543;50.712;6.070;2023-02-01T02:11:59;5.47;93.44
67748;HTU21D;54543;50.712;6.070;2023-02-01T02:14:26;5.43;93.09
67748;HTU21D;54543;50.712;6.070;2023-02-01T02:17:02;5.45;93.31
67748;HTU21D;54543;50.712;6.070;2023-02-01T02:25:42;5.42;93.01
67748;HTU21D;54543;50.712;6.070;2023-02-01T02:34:12;5.41;93.09
67748;HTU21D;54543;50.712;6.070;2023-02-01T02:44:56;5.43;92.52
67748;HTU21D;54543;50.712;6.070;2023-02-01T02:50:58;5.43;92.56
67748;HTU21D;54543;50.712;6.070;2023-02-01T02:54:16;5.50;92.63
67748;HTU21D;54543;50.712;6.070;2023-02-01T02:57:03;5.50;92.61
67748;HTU21D;54543;50.712;6.070;2023-02-01T02:59:50;5.55;92.84
67748;HTU21D;54543;50.712;6.070;2023-02-01T03:02:35;5.60;92.72
67748;HTU21D;54543;50.712;6.070;2023-02-01T03:05:19;5.61;92.43
67748;HTU21D;54543;50.712;6.070;2023-02-01T03:08:13;5.69;92.29
67748;HTU21D;54543;50.712;6.070;2023-02-01T03:11:07;5.70;92.40
67748;HTU21D;54543;50.712;6.070;2023-02-01T03:13:44;5.70;92.39
67748;HTU21D;54543;50.712;6.070;2023-02-01T03:16:18;5.74;92.12
67748;HTU21D;54543;50.712;6.070;2023-02-01T03:21:59;5.69;91.60
67748;HTU21D;54543;50.712;6.070;2023-02-01T03:25:13;5.68;91.54
67748;HTU21D;54543;50.712;6.070;2023-02-01T03:27:24;5.70;91.30
67748;HTU21D;54543;50.712;6.070;2023-02-01T03:32:26;5.77;91.07
67748;HTU21D;54543;50.712;6.070;2023-02-01T03:34:52;5.77;90.95
67748;HTU21D;54543;50.712;6.070;2023-02-01T03:37:27;5.71;91.30
67748;HTU21D;54543;50.712;6.070;2023-02-01T03:40:01;5.68;91.21
67748;HTU21D;54543;50.712;6.070;2023-02-01T03:42:38;5.70;90.72
67748;HTU21D;54543;50.712;6.070;2023-02-01T03:47:41;5.61;89.97
67748;HTU21D;54543;50.712;6.070;2023-02-01T03:50:14;5.59;90.50
67748;HTU21D;54543;50.712;6.070;2023-02-01T03:52:47;5.53;90.33
67748;HTU21D;54543;50.712;6.070;2023-02-01T03:55:17;5.46;90.55
67748;HTU21D;54543;50.712;6.070;2023-02-01T03:57:58;5.39;90.38
67748;HTU21D;54543;50.712;6.070;2023-02-01T04:00:26;5.33;90.05
67748;HTU21D;54543;50.712;6.070;2023-02-01T04:02:52;5.32;89.95
67748;HTU21D;54543;50.712;6.070;2023-02-01T04:05:19;5.26;89.99
67748;HTU21D;54543;50.712;6.070;2023-02-01T04:07:45;5.25;90.10
67748;HTU21D;54543;50.712;6.070;2023-02-01T04:10:11;5.19;88.68
67748;HTU21D;54543;50.712;6.070;2023-02-01T04:12:37;5.19;88.99
67748;HTU21D;54543;50.712;6.070;2023-02-01T04:15:04;5.08;89.31
67748;HTU21D;54543;50.712;6.070;2023-02-01T04:17:30;5.00;89.29
67748;HTU21D;54543;50.712;6.070;2023-02-01T04:19:55;4.92;89.50
67748;HTU21D;54543;50.712;6.070;2023-02-01T04:22:21;4.94;88.96
67748;HTU21D;54543;50.712;6.070;2023-02-01T04:24:47;4.87;89.34
67748;HTU21D;54543;50.712;6.070;2023-02-01T04:27:12;4.84;89.14
67748;HTU21D;54543;50.712;6.070;2023-02-01T04:29:38;4.78;88.85
67748;HTU21D;54543;50.712;6.070;2023-02-01T04:32:04;4.74;89.32
67748;HTU21D;54543;50.712;6.070;2023-02-01T04:34:30;4.71;89.47
67748;HTU21D;54543;50.712;6.070;2023-02-01T04:36:55;4.65;89.35
67748;HTU21D;54543;50.712;6.070;2023-02-01T04:39:21;4.62;89.34
67748;HTU21D;54543;50.712;6.070;2023-02-01T04:41:46;4.61;89.59
67748;HTU21D;54543;50.712;6.070;2023-02-01T04:44:17;4.59;89.56
67748;HTU21D;54543;50.712;6.070;2023-02-01T04:46:44;4.53;89.25
67748;HTU21D;54543;50.712;6.070;2023-02-01T04:49:11;4.52;89.59
67748;HTU21D;54543;50.712;6.070;2023-02-01T04:51:37;4.50;89.84
67748;HTU21D;54543;50.712;6.070;2023-02-01T04:54:03;4.58;89.29
67748;HTU21D;54543;50.712;6.070;2023-02-01T04:56:28;4.60;89.34
67748;HTU21D;54543;50.712;6.070;2023-02-01T04:58:54;4.62;89.44
67748;HTU21D;54543;50.712;6.070;2023-02-01T05:01:21;4.59;89.28
67748;HTU21D;54543;50.712;6.070;2023-02-01T05:03:47;4.60;89.34
67748;HTU21D;54543;50.712;6.070;2023-02-01T05:06:12;4.61;89.43
67748;HTU21D;54543;50.712;6.070;2023-02-01T05:08:38;4.54;89.62
67748;HTU21D;54543;50.712;6.070;2023-02-01T05:11:03;4.56;89.46
67748;HTU21D;54543;50.712;6.070;2023-02-01T05:13:29;4.51;89.37
67748;HTU21D;54543;50.712;6.070;2023-02-01T05:16:13;4.46;89.73
67748;HTU21D;54543;50.712;6.070;2023-02-01T05:18:39;4.44;89.83
67748;HTU21D;54543;50.712;6.070;2023-02-01T05:21:05;4.41;89.99
67748;HTU21D;54543;50.712;6.070;2023-02-01T05:23:31;4.39;90.01
67748;HTU21D;54543;50.712;6.070;2023-02-01T05:26:00;4.36;89.86
67748;HTU21D;54543;50.712;6.070;2023-02-01T05:28:27;4.38;89.85
67748;HTU21D;54543;50.712;6.070;2023-02-01T05:30:52;4.35;89.92
67748;HTU21D;54543;50.712;6.070;2023-02-01T05:33:18;4.29;89.97
67748;HTU21D;54543;50.712;6.070;2023-02-01T05:35:43;4.24;90.14
67748;HTU21D;54543;50.712;6.070;2023-02-01T05:38:09;4.28;89.92
67748;HTU21D;54543;50.712;6.070;2023-02-01T05:40:34;4.29;89.83
67748;HTU21D;54543;50.712;6.070;2023-02-01T05:43:00;4.26;90.02
67748;HTU21D;54543;50.712;6.070;2023-02-01T05:45:25;4.20;90.11
67748;HTU21D;54543;50.712;6.070;2023-02-01T05:47:51;4.15;90.06
67748;HTU21D;54543;50.712;6.070;2023-02-01T05:50:16;4.17;90.30
67748;HTU21D;54543;50.712;6.070;2023-02-01T05:52:42;4.16;90.41
67748;HTU21D;54543;50.712;6.070;2023-02-01T05:55:08;4.22;90.24
67748;HTU21D;54543;50.712;6.070;2023-02-01T05:57:33;4.26;90.18
67748;HTU21D;54543;50.712;6.070;2023-02-01T05:59:59;4.30;89.96
67748;HTU21D;54543;50.712;6.070;2023-02-01T06:02:24;4.31;89.63
67748;HTU21D;54543;50.712;6.070;2023-02-01T06:04:50;4.27;89.25
67748;HTU21D;54543;50.712;6.070;2023-02-01T06:07:16;4.27;89.44
67748;HTU21D;54543;50.712;6.070;2023-02-01T06:09:41;4.27;89.62
67748;HTU21D;54543;50.712;6.070;2023-02-01T06:12:07;4.23;89.42
67748;HTU21D;54543;50.712;6.070;2023-02-01T06:14:32;4.19;89.53
67748;HTU21D;54543;50.712;6.070;2023-02-01T06:16:58;4.15;89.46
67748;HTU21D;54543;50.712;6.070;2023-02-01T06:19:24;4.08;89.81
67748;HTU21D;54543;50.712;6.070;2023-02-01T06:21:49;4.07;89.80
67748;HTU21D;54543;50.712;6.070;2023-02-01T06:24:15;4.08;89.76
67748;HTU21D;54543;50.712;6.070;2023-02-01T06:26:40;4.05;89.70
67748;HTU21D;54543;50.712;6.070;2023-02-01T06:29:09;4.01;89.88
67748;HTU21D;54543;50.712;6.070;2023-02-01T06:31:34;3.99;89.77
67748;HTU21D;54543;50.712;6.070;2023-02-01T06:34:00;3.97;89.99
67748;HTU21D;54543;50.712;6.070;2023-02-01T06:36:25;3.93;90.23
67748;HTU21D;54543;50.712;6.070;2023-02-01T06:38:51;3.91;90.21
67748;HTU21D;54543;50.712;6.070;2023-02-01T06:41:17;3.90;90.08
67748;HTU21D;54543;50.712;6.070;2023-02-01T06:43:42;3.88;90.21
67748;HTU21D;54543;50.712;6.070;2023-02-01T06:46:11;3.86;90.19
67748;HTU21D;54543;50.712;6.070;2023-02-01T06:48:37;3.88;90.24
67748;HTU21D;54543;50.712;6.070;2023-02-01T06:51:03;3.91;90.24
67748;HTU21D;54543;50.712;6.070;2023-02-01T06:53:29;3.91;90.24
67748;HTU21D;54543;50.712;6.070;2023-02-01T06:55:57;3.92;89.99
67748;HTU21D;54543;50.712;6.070;2023-02-01T06:58:24;3.97;89.96
67748;HTU21D;54543;50.712;6.070;2023-02-01T07:00:50;3.94;89.85
67748;HTU21D;54543;50.712;6.070;2023-02-01T07:03:16;4.00;89.50
67748;HTU21D;54543;50.712;6.070;2023-02-01T07:05:42;4.01;89.70
67748;HTU21D;54543;50.712;6.070;2023-02-01T07:08:07;4.02;89.84
67748;HTU21D;54543;50.712;6.070;2023-02-01T07:10:36;4.07;89.59
67748;HTU21D;54543;50.712;6.070;2023-02-01T07:13:02;4.13;89.16
67748;HTU21D;54543;50.712;6.070;2023-02-01T07:15:27;4.16;89.29
67748;HTU21D;54543;50.712;6.070;2023-02-01T07:17:56;4.19;89.41
67748;HTU21D;54543;50.712;6.070;2023-02-01T07:20:22;4.26;89.16
67748;HTU21D;54543;50.712;6.070;2023-02-01T07:22:47;4.33;88.46
67748;HTU21D;54543;50.712;6.070;2023-02-01T07:25:13;4.31;88.56
67748;HTU21D;54543;50.712;6.070;2023-02-01T07:27:38;4.33;88.40
67748;HTU21D;54543;50.712;6.070;2023-02-01T07:30:05;4.37;88.11
67748;HTU21D;54543;50.712;6.070;2023-02-01T07:32:31;4.38;88.07
67748;HTU21D;54543;50.712;6.070;2023-02-01T07:34:57;4.41;87.99
67748;HTU21D;54543;50.712;6.070;2023-02-01T07:37:23;4.45;87.73
67748;HTU21D;54543;50.712;6.070;2023-02-01T07:39:50;4.42;87.60
67748;HTU21D;54543;50.712;6.070;2023-02-01T07:42:16;4.43;88.08
67748;HTU21D;54543;50.712;6.070;2023-02-01T07:44:41;4.46;87.55
67748;HTU21D;54543;50.712;6.070;2023-02-01T07:47:07;4.45;87.78
67748;HTU21D;54543;50.712;6.070;2023-02-01T07:49:33;4.49;87.62
67748;HTU21D;54543;50.712;6.070;2023-02-01T07:51:58;4.48;87.91
67748;HTU21D;54543;50.712;6.070;2023-02-01T07:54:24;4.47;87.42
67748;HTU21D;54543;50.712;6.070;2023-02-01T07:56:49;4.46;87.34
67748;HTU21D;54543;50.712;6.070;2023-02-01T07:59:15;4.45;87.67
67748;HTU21D;54543;50.712;6.070;2023-02-01T08:01:41;4.45;87.94
67748;HTU21D;54543;50.712;6.070;2023-02-01T08:04:08;4.49;87.51
67748;HTU21D;54543;50.712;6.070;2023-02-01T08:06:34;4.44;87.88
67748;HTU21D;54543;50.712;6.070;2023-02-01T08:09:00;4.47;87.63
67748;HTU21D;54543;50.712;6.070;2023-02-01T08:11:27;4.48;87.77
67748;HTU21D;54543;50.712;6.070;2023-02-01T08:13:53;4.49;87.29
67748;HTU21D;54543;50.712;6.070;2023-02-01T08:16:19;4.47;87.09
67748;HTU21D;54543;50.712;6.070;2023-02-01T08:18:45;4.52;87.19
67748;HTU21D;54543;50.712;6.070;2023-02-01T08:21:16;4.53;86.83
67748;HTU21D;54543;50.712;6.070;2023-02-01T08:23:44;4.57;86.57
67748;HTU21D;54543;50.712;6.070;2023-02-01T08:26:25;4.61;86.40
67748;HTU21D;54543;50.712;6.070;2023-02-01T08:28:56;4.65;86.74
67748;HTU21D;54543;50.712;6.070;2023-02-01T08:31:23;4.64;86.45
67748;HTU21D;54543;50.712;6.070;2023-02-01T08:33:54;4.68;85.46
67748;HTU21D;54543;50.712;6.070;2023-02-01T08:36:21;4.64;86.52
67748;HTU21D;54543;50.712;6.070;2023-02-01T08:38:47;4.63;86.45
67748;HTU21D;54543;50.712;6.070;2023-02-01T08:41:15;4.69;86.38
67748;HTU21D;54543;50.712;6.070;2023-02-01T08:43:41;4.71;86.28
67748;HTU21D;54543;50.712;6.070;2023-02-01T08:46:08;4.74;86.39
67748;HTU21D;54543;50.712;6.070;2023-02-01T08:48:34;4.74;84.92
67748;HTU21D;54543;50.712;6.070;2023-02-01T08:51:09;4.82;85.45
67748;HTU21D;54543;50.712;6.070;2023-02-01T08:53:36;4.86;84.94
67748;HTU21D;54543;50.712;6.070;2023-02-01T08:56:02;4.89;85.20
67748;HTU21D;54543;50.712;6.070;2023-02-01T08:58:28;4.93;84.97
67748;HTU21D;54543;50.712;6.070;2023-02-01T09:00:53;4.97;84.53
67748;HTU21D;54543;50.712;6.070;2023-02-01T09:03:19;5.00;84.93
67748;HTU21D;54543;50.712;6.070;2023-02-01T09:05:44;5.04;84.46
67748;HTU21D;54543;50.712;6.070;2023-02-01T09:08:11;5.05;83.62
67748;HTU21D;54543;50.712;6.070;2023-02-01T09:10:40;5.09;83.98
67748;HTU21D;54543;50.712;6.070;2023-02-01T09:13:06;5.08;84.52
67748;HTU21D;54543;50.712;6.070;2023-02-01T09:15:33;5.15;84.28
67748;HTU21D;54543;50.712;6.070;2023-02-01T09:17:59;5.19;84.36
67748;HTU21D;54543;50.712;6.070;2023-02-01T09:20:25;5.21;83.99
67748;HTU21D;54543;50.712;6.070;2023-02-01T09:22:55;5.26;83.40
67748;HTU21D;54543;50.712;6.070;2023-02-01T09:25:20;5.28;83.61
67748;HTU21D;54543;50.712;6.070;2023-02-01T09:27:46;5.35;82.63
67748;HTU21D;54543;50.712;6.070;2023-02-01T09:30:12;5.35;83.10
67748;HTU21D;54543;50.712;6.070;2023-02-01T09:32:37;5.35;83.43
67748;HTU21D;54543;50.712;6.070;2023-02-01T09:35:03;5.38;83.13
67748;HTU21D;54543;50.712;6.070;2023-02-01T09:37:29;5.43;82.68
67748;HTU21D;54543;50.712;6.070;2023-02-01T09:39:54;5.43;82.98
67748;HTU21D;54543;50.712;6.070;2023-02-01T09:42:56;5.43;83.25
67748;HTU21D;54543;50.712;6.070;2023-02-01T09:48:14;5.49;81.78
67748;HTU21D;54543;50.712;6.070;2023-02-01T09:50:50;5.54;82.82
67748;HTU21D;54543;50.712;6.070;2023-02-01T09:53:34;5.60;82.59
67748;HTU21D;54543;50.712;6.070;2023-02-01T09:56:21;5.65;82.13
67748;HTU21D;54543;50.712;6.070;2023-02-01T09:58:59;5.68;82.40
67748;HTU21D;54543;50.712;6.070;2023-02-01T10:01:27;5.72;82.36
67748;HTU21D;54543;50.712;6.070;2023-02-01T10:04:09;5.76;81.26
67748;HTU21D;54543;50.712;6.070;2023-02-01T10:10:01;5.83;81.10
67748;HTU21D;54543;50.712;6.070;2023-02-01T10:12:53;5.81;81.46
67748;HTU21D;54543;50.712;6.070;2023-02-01T10:21:10;5.94;80.11
67748;HTU21D;54543;50.712;6.070;2023-02-01T10:26:45;6.02;80.20
67748;HTU21D;54543;50.712;6.070;2023-02-01T10:29:20;5.98;80.65
67748;HTU21D;54543;50.712;6.070;2023-02-01T10:31:47;6.02;80.95
67748;HTU21D;54543;50.712;6.070;2023-02-01T10:34:17;6.15;80.17
67748;HTU21D;54543;50.712;6.070;2023-02-01T10:36:53;6.19;80.02
67748;HTU21D;54543;50.712;6.070;2023-02-01T10:39:19;6.21;79.35
67748;HTU21D;54543;50.712;6.070;2023-02-01T10:41:45;6.24;80.04
67748;HTU21D;54543;50.712;6.070;2023-02-01T10:44:17;6.26;79.78
67748;HTU21D;54543;50.712;6.070;2023-02-01T10:46:45;6.19;79.95
67748;HTU21D;54543;50.712;6.070;2023-02-01T10:49:20;6.27;79.80
67748;HTU21D;54543;50.712;6.070;2023-02-01T10:51:53;6.43;79.14
67748;HTU21D;54543;50.712;6.070;2023-02-01T10:54:22;6.43;79.56
67748;HTU21D;54543;50.712;6.070;2023-02-01T10:56:56;6.44;78.38
67748;HTU21D;54543;50.712;6.070;2023-02-01T10:59:25;6.45;77.87
67748;HTU21D;54543;50.712;6.070;2023-02-01T11:01:59;6.40;79.01
67748;HTU21D;54543;50.712;6.070;2023-02-01T11:04:25;6.36;78.92
67748;HTU21D;54543;50.712;6.070;2023-02-01T11:09:39;6.40;78.93
67748;HTU21D;54543;50.712;6.070;2023-02-01T11:12:10;6.45;77.89
67748;HTU21D;54543;50.712;6.070;2023-02-01T11:14:47;6.45;79.16
67748;HTU21D;54543;50.712;6.070;2023-02-01T11:17:40;6.54;79.13
67748;HTU21D;54543;50.712;6.070;2023-02-01T11:20:18;6.59;77.12
67748;HTU21D;54543;50.712;6.070;2023-02-01T11:22:54;6.67;77.95
67748;HTU21D;54543;50.712;6.070;2023-02-01T11:25:21;6.76;78.50
67748;HTU21D;54543;50.712;6.070;2023-02-01T11:27:49;6.73;77.57
67748;HTU21D;54543;50.712;6.070;2023-02-01T11:32:56;6.89;77.12
67748;HTU21D;54543;50.712;6.070;2023-02-01T11:35:21;6.93;77.64
67748;HTU21D;54543;50.712;6.070;2023-02-01T11:37:59;7.11;76.29
67748;HTU21D;54543;50.712;6.070;2023-02-01T11:40:29;7.12;76.77
67748;HTU21D;54543;50.712;6.070;2023-02-01T11:45:56;7.44;75.09
67748;HTU21D;54543;50.712;6.070;2023-02-01T11:48:24;7.55;75.09
67748;HTU21D;54543;50.712;6.070;2023-02-01T11:51:06;7.54;74.84
67748;HTU21D;54543;50.712;6.070;2023-02-01T11:56:37;7.53;75.16
67748;HTU21D;54543;50.712;6.070;2023-02-01T12:13:09;7.32;74.17
67748;HTU21D;54543;50.712;6.070;2023-02-01T12:15:51;7.32;73.90
67748;HTU21D;54543;50.712;6.070;2023-02-01T12:26:34;7.33;72.92
67748;HTU21D;54543;50.712;6.070;2023-02-01T12:34:59;7.35;73.72
67748;HTU21D;54543;50.712;6.070;2023-02-01T12:37:40;7.28;73.95
67748;HTU21D;54543;50.712;6.070;2023-02-01T12:42:53;7.29;73.30
67748;HTU21D;54543;50.712;6.070;2023-02-01T12:48:22;7.16;74.83
67748;HTU21D;54543;50.712;6.070;2023-02-01T12:50:53;7.16;75.02
67748;HTU21D;54543;50.712;6.070;2023-02-01T12:53:24;7.18;73.99
67748;HTU21D;54543;50.712;6.070;2023-02-01T12:55:53;7.10;74.77
67748;HTU21D;54543;50.712;6.070;2023-02-01T13:01:03;7.05;74.02
67748;HTU21D;54543;50.712;6.070;2023-02-01T13:04:03;7.01;74.90
67748;HTU21D;54543;50.712;6.070;2023-02-01T13:06:37;7.01;75.01
67748;HTU21D;54543;50.712;6.070;2023-02-01T13:11:45;6.96;74.86
67748;HTU21D;54543;50.712;6.070;2023-02-01T13:16:50;6.99;75.66
67748;HTU21D;54543;50.712;6.070;2023-02-01T13:19:24;7.02;75.19
67748;HTU21D;54543;50.712;6.070;2023-02-01T13:21:56;6.97;75.47
67748;HTU21D;54543;50.712;6.070;2023-02-01T13:24:36;7.02;75.06
67748;HTU21D;54543;50.712;6.070;2023-02-01T13:27:03;6.99;75.73
67748;HTU21D;54543;50.712;6.070;2023-02-01T13:29:30;6.99;75.67
67748;HTU21D;54543;50.712;6.070;2023-02-01T13:32:04;7.08;75.02
67748;HTU21D;54543;50.712;6.070;2023-02-01T13:34:54;7.01;75.26
67748;HTU21D;54543;50.712;6.070;2023-02-01T13:40:44;7.03;73.97
67748;HTU21D;54543;50.712;6.070;2023-02-01T13:43:21;7.03;75.45
67748;HTU21D;54543;50.712;6.070;2023-02-01T13:45:51;6.99;75.43
67748;HTU21D;54543;50.712;6.070;2023-02-01T13:48:24;7.02;74.67
67748;HTU21D;54543;50.712;6.070;2023-02-01T13:50:55;7.02;75.38
67748;HTU21D;54543;50.712;6.070;2023-02-01T13:53:27;7.04;74.96
67748;HTU21D;54543;50.712;6.070;2023-02-01T13:55:59;7.12;74.89
67748;HTU21D;54543;50.712;6.070;2023-02-01T13:58:39;7.10;73.77
67748;HTU21D;54543;50.712;6.070;2023-02-01T14:04:06;7.17;73.73
67748;HTU21D;54543;50.712;6.070;2023-02-01T14:06:53;7.19;74.12
67748;HTU21D;54543;50.712;6.070;2023-02-01T14:09:32;7.20;74.18
67748;HTU21D;54543;50.712;6.070;2023-02-01T14:15:35;7.24;74.14
67748;HTU21D;54543;50.712;6.070;2023-02-01T14:18:01;7.25;74.44
67748;HTU21D;54543;50.712;6.070;2023-02-01T14:20:46;7.27;73.94
67748;HTU21D;54543;50.712;6.070;2023-02-01T14:23:16;7.25;74.47
67748;HTU21D;54543;50.712;6.070;2023-02-01T14:25:44;7.27;74.30
67748;HTU21D;54543;50.712;6.070;2023-02-01T14:28:28;7.28;74.07
67748;HTU21D;54543;50.712;6.070;2023-02-01T14:30:56;7.27;74.49
67748;HTU21D;54543;50.712;6.070;2023-02-01T14:33:25;7.29;74.47
67748;HTU21D;54543;50.712;6.070;2023-02-01T14:36:04;7.31;74.67
67748;HTU21D;54543;50.712;6.070;2023-02-01T14:38:32;7.34;74.17
67748;HTU21D;54543;50.712;6.070;2023-02-01T14:41:33;7.32;72.96
67748;HTU21D;54543;50.712;6.070;2023-02-01T14:49:34;7.40;73.90
67748;HTU21D;54543;50.712;6.070;2023-02-01T14:52:06;7.43;73.12
67748;HTU21D;54543;50.712;6.070;2023-02-01T14:54:35;7.41;74.17
67748;HTU21D;54543;50.712;6.070;2023-02-01T14:57:02;7.43;73.51
67748;HTU21D;54543;50.712;6.070;2023-02-01T14:59:30;7.45;73.56
67748;HTU21D;54543;50.712;6.070;2023-02-01T15:02:00;7.46;73.20
67748;HTU21D;54543;50.712;6.070;2023-02-01T15:04:27;7.43;73.22
67748;HTU21D;54543;50.712;6.070;2023-02-01T15:07:05;7.49;72.41
67748;HTU21D;54543;50.712;6.070;2023-02-01T15:09:38;7.45;72.93
67748;HTU21D;54543;50.712;6.070;2023-02-01T15:14:47;7.41;73.36
67748;HTU21D;54543;50.712;6.070;2023-02-01T15:17:25;7.43;72.86
67748;HTU21D;54543;50.712;6.070;2023-02-01T15:22:28;7.44;73.56
67748;HTU21D;54543;50.712;6.070;2023-02-01T15:24:58;7.45;73.04
67748;HTU21D;54543;50.712;6.070;2023-02-01T15:27:26;7.42;73.90
67748;HTU21D;54543;50.712;6.070;2023-02-01T15:29:52;7.38;73.77
67748;HTU21D;54543;50.712;6.070;2023-02-01T15:33:14;7.20;76.11
67748;HTU21D;54543;50.712;6.070;2023-02-01T15:38:31;6.87;77.82
67748;HTU21D;54543;50.712;6.070;2023-02-01T15:41:13;6.84;78.18
67748;HTU21D;54543;50.712;6.070;2023-02-01T15:43:43;6.79;77.40
67748;HTU21D;54543;50.712;6.070;2023-02-01T15:46:14;6.71;77.81
67748;HTU21D;54543;50.712;6.070;2023-02-01T15:48:52;6.68;78.73
67748;HTU21D;54543;50.712;6.070;2023-02-01T15:51:21;6.60;79.77
67748;HTU21D;54543;50.712;6.070;2023-02-01T15:53:59;6.54;80.28
67748;HTU21D;54543;50.712;6.070;2023-02-01T15:56:37;6.45;81.08
67748;HTU21D;54543;50.712;6.070;2023-02-01T15:59:20;6.43;80.70
67748;HTU21D;54543;50.712;6.070;2023-02-01T16:01:46;6.38;80.62
67748;HTU21D;54543;50.712;6.070;2023-02-01T16:04:16;6.39;81.14
67748;HTU21D;54543;50.712;6.070;2023-02-01T16:07:02;6.38;81.25
67748;HTU21D;54543;50.712;6.070;2023-02-01T16:09:40;6.38;80.78
67748;HTU21D;54543;50.712;6.070;2023-02-01T16:15:03;6.27;81.89
67748;HTU21D;54543;50.712;6.070;2023-02-01T16:17:29;6.23;83.37
67748;HTU21D;54543;50.712;6.070;2023-02-01T16:19:55;6.17;83.90
67748;HTU21D;54543;50.712;6.070;2023-02-01T16:22:22;6.14;84.97
67748;HTU21D;54543;50.712;6.070;2023-02-01T16:24:48;6.07;85.21
67748;HTU21D;54543;50.712;6.070;2023-02-01T16:27:13;6.01;85.60
67748;HTU21D;54543;50.712;6.070;2023-02-01T16:29:39;5.94;85.58
67748;HTU21D;54543;50.712;6.070;2023-02-01T16:32:05;5.87;86.87
67748;HTU21D;54543;50.712;6.070;2023-02-01T16:34:31;5.89;86.71
67748;HTU21D;54543;50.712;6.070;2023-02-01T16:36:56;5.82;87.20
67748;HTU21D;54543;50.712;6.070;2023-02-01T16:39:23;5.83;87.57
67748;HTU21D;54543;50.712;6.070;2023-02-01T16:41:49;5.83;86.98
67748;HTU21D;54543;50.712;6.070;2023-02-01T16:44:14;5.85;87.89
67748;HTU21D;54543;50.712;6.070;2023-02-01T16:46:44;5.83;88.19
67748;HTU21D;54543;50.712;6.070;2023-02-01T16:49:20;5.77;89.44
67748;HTU21D;54543;50.712;6.070;2023-02-01T16:51:47;5.78;88.95
67748;HTU21D;54543;50.712;6.070;2023-02-01T16:54:13;5.77;89.34
67748;HTU21D;54543;50.712;6.070;2023-02-01T16:56:40;5.74;88.89
67748;HTU21D;54543;50.712;6.070;2023-02-01T16:59:07;5.72;89.65
67748;HTU21D;54543;50.712;6.070;2023-02-01T17:01:34;5.77;88.75
67748;HTU21D;54543;50.712;6.070;2023-02-01T17:04:01;5.77;89.34
67748;HTU21D;54543;50.712;6.070;2023-02-01T17:06:27;5.78;88.86
67748;HTU21D;54543;50.712;6.070;2023-02-01T17:08:56;5.77;89.30
67748;HTU21D;54543;50.712;6.070;2023-02-01T17:11:27;5.75;90.11
67748;HTU21D;54543;50.712;6.070;2023-02-01T17:13:56;5.74;90.57
67748;HTU21D;54543;50.712;6.070;2023-02-01T17:16:28;5.76;89.70
67748;HTU21D;54543;50.712;6.070;2023-02-01T17:19:08;5.74;89.41
67748;HTU21D;54543;50.712;6.070;2023-02-01T17:21:42;5.72;89.94
67748;HTU21D;54543;50.712;6.070;2023-02-01T17:24:13;5.74;90.09
67748;HTU21D;54543;50.712;6.070;2023-02-01T17:26:40;5.71;90.25
67748;HTU21D;54543;50.712;6.070;2023-02-01T17:29:06;5.70;90.53
67748;HTU21D;54543;50.712;6.070;2023-02-01T17:31:33;5.70;90.33
67748;HTU21D;54543;50.712;6.070;2023-02-01T17:34:00;5.69;90.37
67748;HTU21D;54543;50.712;6.070;2023-02-01T17:36:26;5.69;90.69
67748;HTU21D;54543;50.712;6.070;2023-02-01T17:38:51;5.67;91.31
67748;HTU21D;54543;50.712;6.070;2023-02-01T17:41:17;5.71;90.51
67748;HTU21D;54543;50.712;6.070;2023-02-01T17:43:43;5.72;90.05
67748;HTU21D;54543;50.712;6.070;2023-02-01T17:46:14;5.70;90.56
67748;HTU21D;54543;50.712;6.070;2023-02-01T17:48:40;5.69;91.16
67748;HTU21D;54543;50.712;6.070;2023-02-01T17:51:21;5.70;91.35
67748;HTU21D;54543;50.712;6.070;2023-02-01T17:53:48;5.72;90.80
67748;HTU21D;54543;50.712;6.070;2023-02-01T17:56:18;5.71;90.73